sensor_id;sensor_type;location;lat;lon;timestamp;pressure;altitude;pressure_sealevel;temperature;humidity
17025;BME280;8629;42.496;25.620;2024-02-26T00:00:07;96136.47;;;8.88;74.01
17025;BME280;8629;42.496;25.620;2024-02-26T00:02:35;96092.03;;;8.55;74.38
17025;BME280;8629;42.496;25.620;2024-02-26T00:05:05;96093.56;;;8.62;73.49
17025;BME280;8629;42.496;25.620;2024-02-26T00:07:32;96126.75;;;8.59;74.84
17025;BME280;8629;42.496;25.620;2024-02-26T00:09:58;96118.75;;;8.64;74.67
17025;BME280;8629;42.496;25.620;2024-02-26T00:12:25;96130.72;;;8.62;75.20
17025;BME280;8629;42.496;25.620;2024-02-26T00:14:52;96130.25;;;8.54;75.19
17025;BME280;8629;42.496;25.620;2024-02-26T00:17:20;96114.63;;;8.53;75.25
17025;BME280;8629;42.496;25.620;2024-02-26T00:19:47;96124.69;;;8.75;74.29
17025;BME280;8629;42.496;25.620;2024-02-26T00:22:14;96101.03;;;8.60;74.26
17025;BME280;8629;42.496;25.620;2024-02-26T00:24:41;96120.41;;;8.79;73.95
17025;BME280;8629;42.496;25.620;2024-02-26T00:27:08;96101.31;;;8.34;74.20
17025;BME280;8629;42.496;25.620;2024-02-26T00:29:34;96123.16;;;8.50;74.91
17025;BME280;8629;42.496;25.620;2024-02-26T00:32:01;96120.09;;;8.62;74.39
17025;BME280;8629;42.496;25.620;2024-02-26T00:34:29;96111.50;;;8.70;74.20
17025;BME280;8629;42.496;25.620;2024-02-26T00:36:56;96068.75;;;8.28;73.32
17025;BME280;8629;42.496;25.620;2024-02-26T00:39:23;96109.56;;;8.32;74.82
17025;BME280;8629;42.496;25.620;2024-02-26T00:41:50;96103.03;;;8.49;74.64
17025;BME280;8629;42.496;25.620;2024-02-26T00:44:17;96085.31;;;8.44;74.83
17025;BME280;8629;42.496;25.620;2024-02-26T00:46:44;96106.13;;;8.56;74.98
17025;BME280;8629;42.496;25.620;2024-02-26T00:49:11;96076.34;;;8.40;75.32
17025;BME280;8629;42.496;25.620;2024-02-26T00:51:39;96083.50;;;8.40;75.10
17025;BME280;8629;42.496;25.620;2024-02-26T00:54:05;96062.16;;;8.50;73.84
17025;BME280;8629;42.496;25.620;2024-02-26T00:56:32;96093.19;;;8.49;74.38
17025;BME280;8629;42.496;25.620;2024-02-26T00:58:59;96093.13;;;8.54;74.97
17025;BME280;8629;42.496;25.620;2024-02-26T01:01:26;96088.47;;;8.65;74.80
17025;BME280;8629;42.496;25.620;2024-02-26T01:03:53;96089.78;;;8.68;74.53
17025;BME280;8629;42.496;25.620;2024-02-26T01:06:20;96084.31;;;8.78;74.35
17025;BME280;8629;42.496;25.620;2024-02-26T01:08:49;96048.81;;;8.55;74.44
17025;BME280;8629;42.496;25.620;2024-02-26T01:11:16;96084.97;;;8.70;75.24
17025;BME280;8629;42.496;25.620;2024-02-26T01:13:43;96028.63;;;8.40;75.34
17025;BME280;8629;42.496;25.620;2024-02-26T01:16:09;96087.13;;;8.68;75.01
17025;BME280;8629;42.496;25.620;2024-02-26T01:18:37;96074.78;;;8.58;74.18
17025;BME280;8629;42.496;25.620;2024-02-26T01:21:05;96079.16;;;8.68;74.98
17025;BME280;8629;42.496;25.620;2024-02-26T01:23:34;96092.00;;;8.79;74.54
17025;BME280;8629;42.496;25.620;2024-02-26T01:26:02;96048.38;;;8.48;74.51
17025;BME280;8629;42.496;25.620;2024-02-26T01:28:30;96027.38;;;8.51;74.64
17025;BME280;8629;42.496;25.620;2024-02-26T01:30:57;95975.47;;;8.26;74.75
17025;BME280;8629;42.496;25.620;2024-02-26T01:33:25;96061.22;;;8.97;74.40
17025;BME280;8629;42.496;25.620;2024-02-26T01:35:52;96037.22;;;8.70;74.90
17025;BME280;8629;42.496;25.620;2024-02-26T01:38:19;96019.22;;;8.67;75.09
17025;BME280;8629;42.496;25.620;2024-02-26T01:40:45;96063.59;;;8.80;74.89
17025;BME280;8629;42.496;25.620;2024-02-26T01:43:14;96059.53;;;8.69;75.82
17025;BME280;8629;42.496;25.620;2024-02-26T01:45:40;96054.28;;;8.64;75.56
17025;BME280;8629;42.496;25.620;2024-02-26T01:48:07;96019.84;;;8.40;75.61
17025;BME280;8629;42.496;25.620;2024-02-26T01:50:36;96061.75;;;8.80;75.56
17025;BME280;8629;42.496;25.620;2024-02-26T01:53:03;96059.88;;;8.62;75.43
17025;BME280;8629;42.496;25.620;2024-02-26T01:55:31;96059.31;;;8.65;75.91
17025;BME280;8629;42.496;25.620;2024-02-26T01:57:58;96060.22;;;8.74;75.93
17025;BME280;8629;42.496;25.620;2024-02-26T02:00:26;96060.44;;;8.78;75.65
17025;BME280;8629;42.496;25.620;2024-02-26T02:02:54;96058.34;;;8.75;75.84
17025;BME280;8629;42.496;25.620;2024-02-26T02:05:21;96054.22;;;8.69;75.83
17025;BME280;8629;42.496;25.620;2024-02-26T02:07:49;96061.44;;;8.82;75.49
17025;BME280;8629;42.496;25.620;2024-02-26T02:10:16;96066.81;;;8.58;75.63
17025;BME280;8629;42.496;25.620;2024-02-26T02:12:48;96044.16;;;8.47;75.93
17025;BME280;8629;42.496;25.620;2024-02-26T02:15:15;96011.50;;;8.27;76.03
17025;BME280;8629;42.496;25.620;2024-02-26T02:17:43;96076.78;;;8.66;75.85
17025;BME280;8629;42.496;25.620;2024-02-26T02:20:15;96051.56;;;8.88;75.31
17025;BME280;8629;42.496;25.620;2024-02-26T02:22:44;96030.41;;;8.64;75.14
17025;BME280;8629;42.496;25.620;2024-02-26T02:25:10;96022.47;;;8.64;74.91
17025;BME280;8629;42.496;25.620;2024-02-26T02:27:37;96042.59;;;8.65;74.69
17025;BME280;8629;42.496;25.620;2024-02-26T02:30:06;96058.84;;;8.58;74.83
17025;BME280;8629;42.496;25.620;2024-02-26T02:32:33;96023.41;;;8.30;75.72
17025;BME280;8629;42.496;25.620;2024-02-26T02:35:00;96062.88;;;8.55;76.00
17025;BME280;8629;42.496;25.620;2024-02-26T02:37:26;96003.53;;;8.27;75.61
17025;BME280;8629;42.496;25.620;2024-02-26T02:39:55;96063.09;;;8.78;75.53
17025;BME280;8629;42.496;25.620;2024-02-26T02:42:23;96044.66;;;8.49;75.79
17025;BME280;8629;42.496;25.620;2024-02-26T02:44:50;96033.94;;;8.35;76.63
17025;BME280;8629;42.496;25.620;2024-02-26T02:47:16;96055.34;;;8.63;76.64
17025;BME280;8629;42.496;25.620;2024-02-26T02:49:43;96048.34;;;8.72;76.20
17025;BME280;8629;42.496;25.620;2024-02-26T02:52:10;96057.09;;;8.72;76.22
17025;BME280;8629;42.496;25.620;2024-02-26T02:54:37;96025.88;;;8.45;76.18
17025;BME280;8629;42.496;25.620;2024-02-26T02:57:07;96054.34;;;8.34;76.08
17025;BME280;8629;42.496;25.620;2024-02-26T02:59:35;96051.97;;;8.38;76.07
17025;BME280;8629;42.496;25.620;2024-02-26T03:02:01;95991.66;;;8.01;76.67
17025;BME280;8629;42.496;25.620;2024-02-26T03:04:28;96060.63;;;8.20;76.89
17025;BME280;8629;42.496;25.620;2024-02-26T03:06:55;96054.75;;;8.47;77.24
17025;BME280;8629;42.496;25.620;2024-02-26T03:09:23;95984.63;;;8.15;76.86
17025;BME280;8629;42.496;25.620;2024-02-26T03:11:50;96013.72;;;8.44;76.51
17025;BME280;8629;42.496;25.620;2024-02-26T03:14:18;96061.09;;;8.70;76.49
17025;BME280;8629;42.496;25.620;2024-02-26T03:16:45;96060.28;;;8.50;77.01
17025;BME280;8629;42.496;25.620;2024-02-26T03:19:14;96051.09;;;8.43;77.71
17025;BME280;8629;42.496;25.620;2024-02-26T03:21:41;96059.19;;;8.51;76.81
17025;BME280;8629;42.496;25.620;2024-02-26T03:24:07;96044.94;;;8.23;77.75
17025;BME280;8629;42.496;25.620;2024-02-26T03:26:35;96061.16;;;8.65;77.21
17025;BME280;8629;42.496;25.620;2024-02-26T03:29:02;96065.16;;;8.62;76.85
17025;BME280;8629;42.496;25.620;2024-02-26T03:31:30;96066.66;;;8.49;77.21
17025;BME280;8629;42.496;25.620;2024-02-26T03:33:57;96061.72;;;8.62;76.72
17025;BME280;8629;42.496;25.620;2024-02-26T03:36:24;96001.22;;;8.02;76.82
17025;BME280;8629;42.496;25.620;2024-02-26T03:38:51;96061.81;;;8.08;77.19
17025;BME280;8629;42.496;25.620;2024-02-26T03:41:17;96041.88;;;7.92;76.95
17025;BME280;8629;42.496;25.620;2024-02-26T03:43:44;96064.47;;;8.08;77.66
17025;BME280;8629;42.496;25.620;2024-02-26T03:46:11;96021.69;;;7.96;75.99
17025;BME280;8629;42.496;25.620;2024-02-26T03:48:40;96040.28;;;8.15;76.12
17025;BME280;8629;42.496;25.620;2024-02-26T03:51:08;96025.91;;;8.21;76.00
17025;BME280;8629;42.496;25.620;2024-02-26T03:53:35;96008.94;;;7.98;76.17
17025;BME280;8629;42.496;25.620;2024-02-26T03:56:03;96046.69;;;8.09;76.57
17025;BME280;8629;42.496;25.620;2024-02-26T03:58:30;96032.91;;;7.88;76.97
17025;BME280;8629;42.496;25.620;2024-02-26T04:00:57;95990.38;;;7.74;76.55
17025;BME280;8629;42.496;25.620;2024-02-26T04:03:24;96001.34;;;7.68;77.21
17025;BME280;8629;42.496;25.620;2024-02-26T04:05:52;96033.06;;;7.97;77.02
17025;BME280;8629;42.496;25.620;2024-02-26T04:08:19;96030.09;;;7.79;77.07
17025;BME280;8629;42.496;25.620;2024-02-26T04:10:46;96047.47;;;7.91;77.26
17025;BME280;8629;42.496;25.620;2024-02-26T04:13:13;96012.50;;;7.65;77.97
17025;BME280;8629;42.496;25.620;2024-02-26T04:15:40;96028.03;;;7.47;77.76
17025;BME280;8629;42.496;25.620;2024-02-26T04:18:07;96044.41;;;7.78;77.79
17025;BME280;8629;42.496;25.620;2024-02-26T04:20:34;96046.22;;;7.83;78.19
17025;BME280;8629;42.496;25.620;2024-02-26T04:23:02;96002.34;;;7.72;77.82
17025;BME280;8629;42.496;25.620;2024-02-26T04:25:29;96033.97;;;8.11;76.99
17025;BME280;8629;42.496;25.620;2024-02-26T04:27:56;96043.59;;;8.26;76.64
17025;BME280;8629;42.496;25.620;2024-02-26T04:30:23;96039.53;;;8.33;76.32
17025;BME280;8629;42.496;25.620;2024-02-26T04:32:50;96052.66;;;8.44;76.31
17025;BME280;8629;42.496;25.620;2024-02-26T04:35:16;96042.84;;;8.20;76.27
17025;BME280;8629;42.496;25.620;2024-02-26T04:37:43;96053.16;;;8.03;76.69
17025;BME280;8629;42.496;25.620;2024-02-26T04:40:13;96068.13;;;8.13;77.58
17025;BME280;8629;42.496;25.620;2024-02-26T04:42:39;95998.78;;;7.81;77.64
17025;BME280;8629;42.496;25.620;2024-02-26T04:45:07;96015.81;;;7.99;77.21
17025;BME280;8629;42.496;25.620;2024-02-26T04:47:35;96057.25;;;8.14;77.55
17025;BME280;8629;42.496;25.620;2024-02-26T04:50:03;96009.28;;;7.92;76.22
17025;BME280;8629;42.496;25.620;2024-02-26T04:52:30;96050.31;;;8.18;76.75
17025;BME280;8629;42.496;25.620;2024-02-26T04:54:57;96033.84;;;7.97;76.41
17025;BME280;8629;42.496;25.620;2024-02-26T04:57:26;96032.97;;;7.83;77.17
17025;BME280;8629;42.496;25.620;2024-02-26T04:59:53;95999.16;;;7.75;76.91
17025;BME280;8629;42.496;25.620;2024-02-26T05:02:20;95992.88;;;7.66;76.41
17025;BME280;8629;42.496;25.620;2024-02-26T05:04:47;96069.88;;;8.22;77.14
17025;BME280;8629;42.496;25.620;2024-02-26T05:07:14;96054.00;;;7.98;77.37
17025;BME280;8629;42.496;25.620;2024-02-26T05:09:42;96060.81;;;8.04;77.83
17025;BME280;8629;42.496;25.620;2024-02-26T05:12:10;96002.19;;;7.63;78.21
17025;BME280;8629;42.496;25.620;2024-02-26T05:14:38;96018.25;;;7.72;78.05
17025;BME280;8629;42.496;25.620;2024-02-26T05:17:05;96038.53;;;7.81;78.30
17025;BME280;8629;42.496;25.620;2024-02-26T05:19:32;96077.72;;;7.84;78.29
17025;BME280;8629;42.496;25.620;2024-02-26T05:21:59;96077.03;;;7.74;78.45
17025;BME280;8629;42.496;25.620;2024-02-26T05:24:26;96053.41;;;7.77;78.63
17025;BME280;8629;42.496;25.620;2024-02-26T05:26:53;96070.31;;;7.81;77.99
17025;BME280;8629;42.496;25.620;2024-02-26T05:29:21;96061.59;;;7.81;77.83
17025;BME280;8629;42.496;25.620;2024-02-26T05:31:49;96071.16;;;7.77;78.39
17025;BME280;8629;42.496;25.620;2024-02-26T05:34:15;96041.91;;;7.34;78.58
17025;BME280;8629;42.496;25.620;2024-02-26T05:36:42;96071.31;;;7.91;77.73
17025;BME280;8629;42.496;25.620;2024-02-26T05:39:09;96027.88;;;7.33;78.66
17025;BME280;8629;42.496;25.620;2024-02-26T05:41:37;96090.88;;;7.66;79.43
17025;BME280;8629;42.496;25.620;2024-02-26T05:44:04;96087.34;;;7.75;80.27
17025;BME280;8629;42.496;25.620;2024-02-26T05:46:31;96073.19;;;7.85;79.94
17025;BME280;8629;42.496;25.620;2024-02-26T05:48:59;96074.25;;;8.13;79.51
17025;BME280;8629;42.496;25.620;2024-02-26T05:51:25;96079.47;;;8.18;79.04
17025;BME280;8629;42.496;25.620;2024-02-26T05:53:52;96098.19;;;8.03;79.96
17025;BME280;8629;42.496;25.620;2024-02-26T05:56:20;96096.63;;;7.73;80.40
17025;BME280;8629;42.496;25.620;2024-02-26T05:58:47;96091.00;;;7.50;80.50
17025;BME280;8629;42.496;25.620;2024-02-26T06:01:15;96113.94;;;7.94;79.61
17025;BME280;8629;42.496;25.620;2024-02-26T06:03:42;96114.44;;;7.67;80.67
17025;BME280;8629;42.496;25.620;2024-02-26T06:06:10;96124.31;;;7.85;80.56
17025;BME280;8629;42.496;25.620;2024-02-26T06:08:37;96123.66;;;7.75;80.63
17025;BME280;8629;42.496;25.620;2024-02-26T06:11:05;96081.16;;;7.85;80.18
17025;BME280;8629;42.496;25.620;2024-02-26T06:13:32;96112.00;;;8.00;80.78
17025;BME280;8629;42.496;25.620;2024-02-26T06:15:59;96096.41;;;7.98;80.73
17025;BME280;8629;42.496;25.620;2024-02-26T06:18:26;96116.66;;;8.13;80.83
17025;BME280;8629;42.496;25.620;2024-02-26T06:20:52;96114.88;;;8.03;80.32
17025;BME280;8629;42.496;25.620;2024-02-26T06:23:20;96119.06;;;8.09;80.37
17025;BME280;8629;42.496;25.620;2024-02-26T06:25:47;96117.19;;;8.39;79.48
17025;BME280;8629;42.496;25.620;2024-02-26T06:28:14;96118.19;;;8.43;79.00
17025;BME280;8629;42.496;25.620;2024-02-26T06:30:41;96119.88;;;8.58;78.60
17025;BME280;8629;42.496;25.620;2024-02-26T06:33:07;96128.13;;;8.56;78.91
17025;BME280;8629;42.496;25.620;2024-02-26T06:35:34;96110.34;;;8.57;78.17
17025;BME280;8629;42.496;25.620;2024-02-26T06:38:01;96121.81;;;8.52;78.11
17025;BME280;8629;42.496;25.620;2024-02-26T06:40:29;96111.63;;;8.36;78.86
17025;BME280;8629;42.496;25.620;2024-02-26T06:42:56;96139.28;;;8.53;78.96
17025;BME280;8629;42.496;25.620;2024-02-26T06:45:23;96126.94;;;8.68;78.67
17025;BME280;8629;42.496;25.620;2024-02-26T06:47:49;96129.28;;;8.69;79.03
17025;BME280;8629;42.496;25.620;2024-02-26T06:50:16;96127.41;;;8.70;79.75
17025;BME280;8629;42.496;25.620;2024-02-26T06:52:44;96121.63;;;8.68;79.69
17025;BME280;8629;42.496;25.620;2024-02-26T06:55:11;96123.81;;;8.61;80.27
17025;BME280;8629;42.496;25.620;2024-02-26T06:57:40;96134.03;;;8.72;80.19
17025;BME280;8629;42.496;25.620;2024-02-26T07:00:07;96133.03;;;8.68;80.02
17025;BME280;8629;42.496;25.620;2024-02-26T07:02:39;96117.16;;;8.63;80.61
17025;BME280;8629;42.496;25.620;2024-02-26T07:05:06;96123.88;;;8.98;80.58
17025;BME280;8629;42.496;25.620;2024-02-26T07:07:33;96118.47;;;8.85;80.05
17025;BME280;8629;42.496;25.620;2024-02-26T07:10:00;96121.41;;;9.02;80.44
17025;BME280;8629;42.496;25.620;2024-02-26T07:12:29;96134.31;;;9.09;80.01
17025;BME280;8629;42.496;25.620;2024-02-26T07:14:57;96132.03;;;9.02;79.76
17025;BME280;8629;42.496;25.620;2024-02-26T07:17:24;96083.75;;;8.62;80.18
17025;BME280;8629;42.496;25.620;2024-02-26T07:19:51;96132.53;;;9.04;80.31
17025;BME280;8629;42.496;25.620;2024-02-26T07:22:18;96137.63;;;9.19;79.83
17025;BME280;8629;42.496;25.620;2024-02-26T07:24:44;96131.75;;;9.22;79.41
17025;BME280;8629;42.496;25.620;2024-02-26T07:27:11;96126.56;;;9.31;79.30
17025;BME280;8629;42.496;25.620;2024-02-26T07:29:41;96124.78;;;9.45;78.71
17025;BME280;8629;42.496;25.620;2024-02-26T07:32:09;96134.88;;;9.43;78.72
17025;BME280;8629;42.496;25.620;2024-02-26T07:34:36;96128.66;;;9.34;79.41
17025;BME280;8629;42.496;25.620;2024-02-26T07:37:06;96137.63;;;9.38;78.97
17025;BME280;8629;42.496;25.620;2024-02-26T07:39:33;96113.00;;;9.32;78.65
17025;BME280;8629;42.496;25.620;2024-02-26T07:42:00;96131.75;;;9.41;78.48
17025;BME280;8629;42.496;25.620;2024-02-26T07:44:27;96128.44;;;9.49;78.79
17025;BME280;8629;42.496;25.620;2024-02-26T07:46:54;96136.97;;;9.46;78.26
17025;BME280;8629;42.496;25.620;2024-02-26T07:49:22;96138.31;;;9.44;78.72
17025;BME280;8629;42.496;25.620;2024-02-26T07:51:49;96126.81;;;9.48;78.58
17025;BME280;8629;42.496;25.620;2024-02-26T07:54:16;96124.69;;;9.50;78.97
17025;BME280;8629;42.496;25.620;2024-02-26T07:56:44;96103.94;;;9.52;79.00
17025;BME280;8629;42.496;25.620;2024-02-26T07:59:11;96128.38;;;9.68;78.33
17025;BME280;8629;42.496;25.620;2024-02-26T08:01:40;96133.19;;;9.66;78.31
17025;BME280;8629;42.496;25.620;2024-02-26T08:04:07;96123.13;;;9.63;78.54
17025;BME280;8629;42.496;25.620;2024-02-26T08:06:35;96131.75;;;9.74;77.99
17025;BME280;8629;42.496;25.620;2024-02-26T08:09:02;96129.25;;;9.64;77.95
17025;BME280;8629;42.496;25.620;2024-02-26T08:11:29;96123.31;;;9.86;77.61
17025;BME280;8629;42.496;25.620;2024-02-26T08:13:56;96111.56;;;9.87;76.68
17025;BME280;8629;42.496;25.620;2024-02-26T08:16:24;96106.16;;;9.78;77.28
17025;BME280;8629;42.496;25.620;2024-02-26T08:18:51;96135.97;;;9.75;77.39
17025;BME280;8629;42.496;25.620;2024-02-26T08:21:17;96135.72;;;9.90;77.15
17025;BME280;8629;42.496;25.620;2024-02-26T08:23:46;96144.72;;;10.08;76.69
17025;BME280;8629;42.496;25.620;2024-02-26T08:26:12;96145.81;;;10.21;76.12
17025;BME280;8629;42.496;25.620;2024-02-26T08:28:39;96132.09;;;10.00;75.80
17025;BME280;8629;42.496;25.620;2024-02-26T08:31:06;96118.22;;;10.03;76.11
17025;BME280;8629;42.496;25.620;2024-02-26T08:33:33;96143.28;;;10.43;75.95
17025;BME280;8629;42.496;25.620;2024-02-26T08:36:04;96142.28;;;10.53;75.11
17025;BME280;8629;42.496;25.620;2024-02-26T08:38:31;96102.41;;;10.25;74.83
17025;BME280;8629;42.496;25.620;2024-02-26T08:41:01;96135.31;;;10.57;74.66
17025;BME280;8629;42.496;25.620;2024-02-26T08:43:28;96138.25;;;10.56;74.38
17025;BME280;8629;42.496;25.620;2024-02-26T08:45:54;96141.59;;;10.75;74.23
17025;BME280;8629;42.496;25.620;2024-02-26T08:48:21;96135.28;;;10.85;73.33
17025;BME280;8629;42.496;25.620;2024-02-26T08:50:48;96108.00;;;10.65;73.42
17025;BME280;8629;42.496;25.620;2024-02-26T08:53:15;96144.13;;;11.08;72.46
17025;BME280;8629;42.496;25.620;2024-02-26T08:55:41;96105.09;;;10.89;72.25
17025;BME280;8629;42.496;25.620;2024-02-26T08:58:10;96130.88;;;11.16;71.83
17025;BME280;8629;42.496;25.620;2024-02-26T09:00:36;96124.16;;;11.19;72.32
17025;BME280;8629;42.496;25.620;2024-02-26T09:03:04;96125.31;;;11.26;72.03
17025;BME280;8629;42.496;25.620;2024-02-26T09:05:30;96097.09;;;11.25;70.61
17025;BME280;8629;42.496;25.620;2024-02-26T09:07:57;96121.31;;;11.60;70.76
17025;BME280;8629;42.496;25.620;2024-02-26T09:10:24;96124.84;;;11.69;69.51
17025;BME280;8629;42.496;25.620;2024-02-26T09:12:51;96114.41;;;11.82;69.03
17025;BME280;8629;42.496;25.620;2024-02-26T09:15:19;96110.00;;;11.77;68.62
17025;BME280;8629;42.496;25.620;2024-02-26T09:17:46;96104.34;;;12.01;67.89
17025;BME280;8629;42.496;25.620;2024-02-26T09:20:15;96110.06;;;12.17;66.63
17025;BME280;8629;42.496;25.620;2024-02-26T09:22:45;96104.97;;;12.38;65.41
17025;BME280;8629;42.496;25.620;2024-02-26T09:25:12;96108.03;;;12.62;64.53
17025;BME280;8629;42.496;25.620;2024-02-26T09:27:41;96099.09;;;12.84;63.96
17025;BME280;8629;42.496;25.620;2024-02-26T09:30:08;96087.19;;;12.99;62.93
17025;BME280;8629;42.496;25.620;2024-02-26T09:32:37;96100.06;;;12.97;63.49
17025;BME280;8629;42.496;25.620;2024-02-26T09:35:04;96095.53;;;12.97;63.05
17025;BME280;8629;42.496;25.620;2024-02-26T09:37:31;96028.34;;;12.38;63.69
17025;BME280;8629;42.496;25.620;2024-02-26T09:39:58;96093.91;;;12.70;63.30
17025;BME280;8629;42.496;25.620;2024-02-26T09:42:26;96066.22;;;12.58;63.48
17025;BME280;8629;42.496;25.620;2024-02-26T09:44:54;96088.91;;;12.86;62.71
17025;BME280;8629;42.496;25.620;2024-02-26T09:47:23;96095.25;;;13.25;60.94
17025;BME280;8629;42.496;25.620;2024-02-26T09:49:52;96087.66;;;13.62;60.42
17025;BME280;8629;42.496;25.620;2024-02-26T09:52:20;96077.84;;;13.92;58.81
17025;BME280;8629;42.496;25.620;2024-02-26T09:54:47;96072.56;;;14.13;57.99
17025;BME280;8629;42.496;25.620;2024-02-26T09:57:15;96031.06;;;13.60;57.15
17025;BME280;8629;42.496;25.620;2024-02-26T09:59:43;96082.19;;;13.50;57.95
17025;BME280;8629;42.496;25.620;2024-02-26T10:02:12;96053.09;;;13.31;57.70
17025;BME280;8629;42.496;25.620;2024-02-26T10:04:39;96083.09;;;13.62;56.25
17025;BME280;8629;42.496;25.620;2024-02-26T10:07:11;96087.78;;;13.74;55.66
17025;BME280;8629;42.496;25.620;2024-02-26T10:09:38;96080.31;;;13.97;55.27
17025;BME280;8629;42.496;25.620;2024-02-26T10:12:07;96070.69;;;14.13;53.92
17025;BME280;8629;42.496;25.620;2024-02-26T10:14:35;96051.34;;;14.08;50.80
17025;BME280;8629;42.496;25.620;2024-02-26T10:17:02;96016.50;;;14.16;50.56
17025;BME280;8629;42.496;25.620;2024-02-26T10:19:30;95996.06;;;14.12;50.48
17025;BME280;8629;42.496;25.620;2024-02-26T10:21:57;96010.78;;;14.27;48.02
17025;BME280;8629;42.496;25.620;2024-02-26T10:24:26;96048.81;;;14.50;48.13
17025;BME280;8629;42.496;25.620;2024-02-26T10:26:54;96060.78;;;14.52;47.09
17025;BME280;8629;42.496;25.620;2024-02-26T10:29:23;96056.00;;;14.58;46.57
17025;BME280;8629;42.496;25.620;2024-02-26T10:31:50;96058.97;;;14.65;45.56
17025;BME280;8629;42.496;25.620;2024-02-26T10:34:18;96051.56;;;14.62;46.63
17025;BME280;8629;42.496;25.620;2024-02-26T10:36:44;96054.59;;;14.52;48.50
17025;BME280;8629;42.496;25.620;2024-02-26T10:39:12;96045.44;;;14.61;49.01
17025;BME280;8629;42.496;25.620;2024-02-26T10:41:43;96043.44;;;14.79;47.90
17025;BME280;8629;42.496;25.620;2024-02-26T10:44:11;96030.47;;;14.60;48.62
17025;BME280;8629;42.496;25.620;2024-02-26T10:46:38;96029.75;;;14.72;48.20
17025;BME280;8629;42.496;25.620;2024-02-26T10:49:13;96028.72;;;15.06;45.71
17025;BME280;8629;42.496;25.620;2024-02-26T10:51:44;96023.41;;;15.52;41.70
17025;BME280;8629;42.496;25.620;2024-02-26T10:54:15;96015.34;;;15.85;39.73
17025;BME280;8629;42.496;25.620;2024-02-26T10:56:44;96016.25;;;16.26;40.08
17025;BME280;8629;42.496;25.620;2024-02-26T10:59:12;96011.75;;;16.54;40.23
17025;BME280;8629;42.496;25.620;2024-02-26T11:01:40;96002.47;;;16.52;38.43
17025;BME280;8629;42.496;25.620;2024-02-26T11:04:12;95995.03;;;16.61;39.26
17025;BME280;8629;42.496;25.620;2024-02-26T11:06:39;95984.69;;;17.00;34.83
17025;BME280;8629;42.496;25.620;2024-02-26T11:09:08;95993.22;;;17.46;34.49
17025;BME280;8629;42.496;25.620;2024-02-26T11:11:38;95987.38;;;17.88;34.18
17025;BME280;8629;42.496;25.620;2024-02-26T11:14:08;95979.09;;;17.65;32.38
17025;BME280;8629;42.496;25.620;2024-02-26T11:16:36;95984.16;;;17.38;32.61
17025;BME280;8629;42.496;25.620;2024-02-26T11:19:06;95985.53;;;16.63;34.89
17025;BME280;8629;42.496;25.620;2024-02-26T11:21:35;95932.69;;;15.90;36.19
17025;BME280;8629;42.496;25.620;2024-02-26T11:24:07;95987.97;;;16.04;36.83
17025;BME280;8629;42.496;25.620;2024-02-26T11:26:38;95991.19;;;16.22;36.74
17025;BME280;8629;42.496;25.620;2024-02-26T11:29:09;95999.38;;;16.13;37.26
17025;BME280;8629;42.496;25.620;2024-02-26T11:31:37;95987.84;;;16.12;36.05
17025;BME280;8629;42.496;25.620;2024-02-26T11:34:06;95986.84;;;16.05;37.62
17025;BME280;8629;42.496;25.620;2024-02-26T11:36:34;95982.13;;;15.89;37.76
17025;BME280;8629;42.496;25.620;2024-02-26T11:39:01;95990.72;;;15.95;36.17
17025;BME280;8629;42.496;25.620;2024-02-26T11:41:28;95998.81;;;16.07;38.06
17025;BME280;8629;42.496;25.620;2024-02-26T11:43:58;95995.63;;;15.35;44.58
17025;BME280;8629;42.496;25.620;2024-02-26T11:46:28;95991.13;;;15.15;46.77
17025;BME280;8629;42.496;25.620;2024-02-26T11:48:59;95984.50;;;15.46;46.46
17025;BME280;8629;42.496;25.620;2024-02-26T11:51:27;95984.69;;;15.86;45.21
17025;BME280;8629;42.496;25.620;2024-02-26T11:53:54;95980.91;;;15.99;43.72
17025;BME280;8629;42.496;25.620;2024-02-26T11:56:24;95984.59;;;16.19;44.89
17025;BME280;8629;42.496;25.620;2024-02-26T11:58:57;95977.53;;;15.65;46.12
17025;BME280;8629;42.496;25.620;2024-02-26T12:01:42;95980.56;;;15.43;46.64
17025;BME280;8629;42.496;25.620;2024-02-26T12:04:17;95982.75;;;15.29;46.96
17025;BME280;8629;42.496;25.620;2024-02-26T12:06:50;95983.81;;;15.03;47.89
17025;BME280;8629;42.496;25.620;2024-02-26T12:09:37;95981.38;;;15.10;46.55
17025;BME280;8629;42.496;25.620;2024-02-26T12:12:05;95988.91;;;14.96;47.05
17025;BME280;8629;42.496;25.620;2024-02-26T12:14:33;95978.19;;;14.96;48.17
17025;BME280;8629;42.496;25.620;2024-02-26T12:17:03;95984.53;;;14.91;48.80
17025;BME280;8629;42.496;25.620;2024-02-26T12:19:32;95995.44;;;14.86;50.10
17025;BME280;8629;42.496;25.620;2024-02-26T12:22:00;95931.97;;;14.36;50.44
17025;BME280;8629;42.496;25.620;2024-02-26T12:24:27;95982.06;;;14.65;50.81
17025;BME280;8629;42.496;25.620;2024-02-26T12:26:53;95979.78;;;14.76;51.56
17025;BME280;8629;42.496;25.620;2024-02-26T12:29:20;95985.22;;;14.67;52.47
17025;BME280;8629;42.496;25.620;2024-02-26T12:31:47;95995.44;;;14.86;52.51
17025;BME280;8629;42.496;25.620;2024-02-26T12:34:16;95995.97;;;14.80;51.86
17025;BME280;8629;42.496;25.620;2024-02-26T12:36:42;95975.59;;;14.66;52.08
17025;BME280;8629;42.496;25.620;2024-02-26T12:39:09;95994.59;;;14.95;51.62
17025;BME280;8629;42.496;25.620;2024-02-26T12:41:38;95992.25;;;14.93;51.77
17025;BME280;8629;42.496;25.620;2024-02-26T12:44:05;95993.03;;;14.93;52.62
17025;BME280;8629;42.496;25.620;2024-02-26T12:46:33;95995.97;;;15.01;50.35
17025;BME280;8629;42.496;25.620;2024-02-26T12:48:59;95981.81;;;15.12;47.53
17025;BME280;8629;42.496;25.620;2024-02-26T12:51:28;95996.34;;;15.11;48.34
17025;BME280;8629;42.496;25.620;2024-02-26T12:53:56;95990.81;;;15.29;46.79
17025;BME280;8629;42.496;25.620;2024-02-26T12:56:23;95987.50;;;15.44;45.80
17025;BME280;8629;42.496;25.620;2024-02-26T12:58:51;95999.59;;;15.50;45.18
17025;BME280;8629;42.496;25.620;2024-02-26T13:01:21;96001.38;;;15.46;45.41
17025;BME280;8629;42.496;25.620;2024-02-26T13:03:50;95996.59;;;15.64;45.54
17025;BME280;8629;42.496;25.620;2024-02-26T13:06:18;95992.09;;;15.56;43.58
17025;BME280;8629;42.496;25.620;2024-02-26T13:08:46;95996.59;;;15.64;44.37